Time;durP1;ratioP1;P1;durP2;ratioP2;P2;SDS_P1;SDS_P2;PMS_P1;PMS_P2;Temp;Humidity;BMP_temperature;BMP_pressure;BME280_temperature;BME280_humidity;BME280_pressure;Samples;Min_cycle;Max_cycle;Signal;HPM_P1;HPM_P2
2021/12/09 00:02:22;;;;;;;14.35;7.38;;;2.40;99.90;;;;;;6130566;23;20013;-82
2021/12/09 00:04:55;;;;;;;16.83;7.30;;;1.70;99.90;;;;;;6129191;23;20020;-82
2021/12/09 00:07:30;;;;;;;18.25;7.65;;;2.10;99.90;;;;;;6131128;23;20020;-82
2021/12/09 00:10:10;;;;;;;19.17;6.90;;;1.70;99.90;;;;;;6153721;23;20124;-82
2021/12/09 00:13:14;;;;;;;17.75;8.50;;;1.10;99.90;;;;;;6152692;23;20009;-82
2021/12/09 00:16:12;;;;;;;22.58;7.45;;;1.20;99.90;;;;;;6156968;23;20460;-81
2021/12/09 00:18:48;;;;;;;20.60;7.47;;;1.60;99.90;;;;;;6126828;23;20247;-82
2021/12/09 00:21:39;;;;;;;;;;;;;;;;;;;;;
2021/12/09 00:24:11;;;;;;;19.02;7.30;;;1.70;99.90;;;;;;6150655;23;20579;-80
2021/12/09 00:26:38;;;;;;;17.55;7.97;;;1.60;99.90;;;;;;6233159;23;20416;-81
2021/12/09 00:29:08;;;;;;;15.32;8.27;;;2.20;99.90;;;;;;6240741;23;20022;-81
2021/12/09 00:31:34;;;;;;;19.58;7.57;;;2.40;99.90;;;;;;6241514;23;20027;-81
2021/12/09 00:34:01;;;;;;;24.40;7.75;;;1.80;99.90;;;;;;6214668;23;20099;-81
2021/12/09 00:38:04;;;;;;;28.35;8.05;;;2.20;99.90;;;;;;6240602;23;20290;-81
2021/12/09 00:41:06;;;;;;;16.38;7.88;;;1.50;99.90;;;;;;5998380;23;20378;-81
2021/12/09 00:48:06;;;;;;;17.40;8.07;;;1.10;99.90;;;;;;5977247;24;20026;-82
2021/12/09 01:03:15;;;;;;;19.63;8.65;;;1.60;99.90;;;;;;5839110;24;20042;-81
2021/12/09 01:49:49;;;;;;;18.55;10.44;;;1.50;99.90;;;;;;6101710;23;35428682;-81
2021/12/09 02:15:24;;;;;;;;;;;;;;;;;;;;;
2021/12/09 05:49:20;;;;;;;33.35;15.70;;;0.70;99.90;;;;;;1743494;23;20954;-82
2021/12/09 05:52:18;;;;;;;30.13;15.52;;;0.60;99.90;;;;;;5025191;28;20376;-81
2021/12/09 05:59:00;;;;;;;32.05;14.02;;;0.60;99.90;;;;;;4950633;28;20431;-82
2021/12/09 06:13:30;;;;;;;27.27;13.95;;;0.60;99.90;;;;;;4835342;29;20080;-80
2021/12/09 06:24:39;;;;;;;;;;;;;;;;;;;;;
2021/12/09 06:39:36;;;;;;;26.50;15.52;;;-0.40;99.90;;;;;;4811111;29;20087;-79
2021/12/09 06:42:02;;;;;;;29.90;16.00;;;0.30;99.90;;;;;;4801191;29;20121;-78
2021/12/09 06:44:28;;;;;;;28.42;15.55;;;0.30;99.90;;;;;;4796349;29;20050;-78
2021/12/09 06:46:55;;;;;;;31.80;15.73;;;0.30;99.90;;;;;;4799670;29;20083;-80
2021/12/09 06:49:52;;;;;;;30.52;15.13;;;0.30;99.90;;;;;;4791808;29;20050;-82
2021/12/09 06:52:26;;;;;;;29.92;15.02;;;0.30;99.90;;;;;;4818203;29;20146;-81
2021/12/09 06:54:51;;;;;;;30.15;14.48;;;1.00;99.90;;;;;;4834559;29;20108;-78
2021/12/09 07:06:06;;;;;;;32.83;15.55;;;0.50;99.90;;;;;;4916186;23;20091;-80
2021/12/09 07:17:00;;;;;;;;;;;;;;;;;;;;;
2021/12/09 07:27:33;;;;;;;27.73;15.15;;;-0.20;99.90;;;;;;4764692;30;20550;-81
2021/12/09 07:30:11;;;;;;;36.45;15.30;;;0.90;99.90;;;;;;4785513;29;20059;-79
2021/12/09 07:32:36;;;;;;;27.25;15.68;;;0.30;99.90;;;;;;4769431;29;20412;-79
2021/12/09 07:35:04;;;;;;;30.73;15.07;;;0.30;99.90;;;;;;4772684;29;20088;-81
2021/12/09 07:37:43;;;;;;;35.03;16.70;;;0.30;99.90;;;;;;4768117;29;20055;-81
2021/12/09 07:40:21;;;;;;;29.70;15.13;;;0.40;99.90;;;;;;4771385;29;20569;-81
2021/12/09 07:42:47;;;;;;;32.70;15.40;;;0.50;99.90;;;;;;4780457;29;20042;-80
2021/12/09 07:45:14;;;;;;;36.20;15.23;;;0.50;99.90;;;;;;4811228;29;20050;-82
2021/12/09 07:47:41;;;;;;;34.00;15.48;;;0.50;99.90;;;;;;4831987;29;20074;-80
2021/12/09 07:50:13;;;;;;;31.67;15.32;;;0.50;99.90;;;;;;4819375;29;20050;-78
2021/12/09 07:52:44;;;;;;;34.67;14.85;;;0.40;99.90;;;;;;4830294;29;20080;-77
2021/12/09 07:55:11;;;;;;;28.25;14.88;;;0.50;99.90;;;;;;4866638;29;20045;-78
2021/12/09 07:57:38;;;;;;;29.23;14.43;;;0.50;99.90;;;;;;4861514;29;20078;-78
2021/12/09 08:00:12;;;;;;;25.52;14.95;;;0.50;99.90;;;;;;4947720;28;20046;-79
2021/12/09 08:02:42;;;;;;;30.93;15.03;;;0.50;99.90;;;;;;5010680;28;20053;-80
2021/12/09 08:05:30;;;;;;;30.38;15.15;;;0.40;99.90;;;;;;5015401;28;20084;-81
2021/12/09 08:08:29;;;;;;;;;;;0.40;99.90;;;;;;5003843;28;20049;-79
2021/12/09 08:10:55;;;;;;;37.67;14.38;;;0.50;99.90;;;;;;5005352;28;19949;-76
2021/12/09 08:13:22;;;;;;;31.25;15.02;;;0.50;99.90;;;;;;4986660;28;20092;-76
2021/12/09 08:19:28;;;;;;;28.33;15.32;;;0.50;99.90;;;;;;5030115;28;20036;-76
2021/12/09 08:21:54;;;;;;;33.45;15.07;;;0.40;99.90;;;;;;5005139;28;20046;-76
2021/12/09 08:24:19;;;;;;;30.38;14.68;;;0.50;99.90;;;;;;4990507;28;20046;-77
2021/12/09 08:26:45;;;;;;;31.75;15.73;;;0.60;99.90;;;;;;5013965;28;20041;-79
2021/12/09 08:29:11;;;;;;;31.48;15.13;;;0.50;99.90;;;;;;5021503;28;20099;-80
2021/12/09 08:31:37;;;;;;;31.55;14.63;;;0.60;99.90;;;;;;5009185;28;20049;-79
2021/12/09 08:34:03;;;;;;;28.50;12.52;;;1.50;99.90;;;;;;5006953;28;20327;-79
2021/12/09 08:36:29;;;;;;;28.38;12.80;;;1.30;99.90;;;;;;5003757;28;20369;-78
2021/12/09 08:38:55;;;;;;;31.90;13.02;;;1.30;99.90;;;;;;5013581;28;20123;-81
2021/12/09 08:41:29;;;;;;;28.97;13.77;;;1.10;99.90;;;;;;5032682;28;20056;-79
2021/12/09 08:43:56;;;;;;;26.40;12.38;;;1.70;99.90;;;;;;5032777;28;20070;-79
2021/12/09 08:46:22;;;;;;;25.80;12.75;;;1.50;99.90;;;;;;5030904;28;20485;-76
2021/12/09 08:48:47;;;;;;;28.63;13.82;;;1.20;99.90;;;;;;5030011;28;20136;-76
2021/12/09 08:51:14;;;;;;;30.30;12.68;;;1.10;99.90;;;;;;5031094;28;20068;-78
2021/12/09 08:53:40;;;;;;;20.58;12.48;;;1.10;99.90;;;;;;5025824;28;20128;-78
2021/12/09 08:56:06;;;;;;;31.15;13.10;;;1.00;99.90;;;;;;5010952;28;20552;-83
2021/12/09 08:58:36;;;;;;;24.35;13.02;;;1.00;99.90;;;;;;5013056;28;20125;-82
2021/12/09 09:01:04;;;;;;;28.27;13.57;;;1.00;99.90;;;;;;5046939;28;20036;-79
2021/12/09 09:03:30;;;;;;;23.80;13.52;;;1.00;99.90;;;;;;5016012;28;20041;-79
2021/12/09 09:05:56;;;;;;;29.15;13.48;;;1.00;99.90;;;;;;5032984;28;20116;-79
2021/12/09 09:08:22;;;;;;;22.85;12.80;;;1.00;99.90;;;;;;5029081;28;20137;-80
2021/12/09 09:10:49;;;;;;;29.63;13.13;;;1.00;99.90;;;;;;5031058;28;20409;-81
2021/12/09 09:13:15;;;;;;;29.20;14.02;;;1.10;99.90;;;;;;5029886;28;20044;-79
2021/12/09 09:15:41;;;;;;;26.90;9.10;;;1.50;99.90;;;;;;5029036;28;20035;-74
2021/12/09 09:18:07;;;;;;;38.13;17.98;;;1.90;99.90;;;;;;5024679;28;20048;-77
2021/12/09 09:20:39;;;;;;;37.67;14.40;;;1.90;99.90;;;;;;5012944;28;20048;-78
2021/12/09 09:23:07;;;;;;;28.23;12.80;;;1.70;99.90;;;;;;5009660;28;20046;-79
2021/12/09 09:25:33;;;;;;;23.15;11.75;;;1.60;99.90;;;;;;5026397;28;20431;-79
2021/12/09 09:28:01;;;;;;;26.92;12.02;;;1.50;99.90;;;;;;5028436;28;20041;-77
2021/12/09 09:30:36;;;;;;;31.05;12.38;;;1.60;99.90;;;;;;5018253;28;20048;-76
2021/12/09 09:33:13;;;;;;;28.67;11.82;;;1.50;99.90;;;;;;5029499;28;20056;-77
2021/12/09 09:35:41;;;;;;;31.45;12.15;;;1.50;99.90;;;;;;5029544;28;20111;-77
2021/12/09 09:38:07;;;;;;;25.55;11.48;;;1.50;99.90;;;;;;5033210;28;20048;-78
2021/12/09 09:40:49;;;;;;;23.55;11.32;;;1.50;99.90;;;;;;5035329;28;20092;-76
2021/12/09 09:45:57;;;;;;;30.25;12.55;;;1.60;99.90;;;;;;5020576;28;20408;-77
2021/12/09 09:48:36;;;;;;;27.88;13.18;;;1.60;99.90;;;;;;5015878;28;20077;-82
2021/12/09 09:51:04;;;;;;;27.08;12.20;;;1.60;99.90;;;;;;5015841;28;20051;-75
2021/12/09 09:53:30;;;;;;;24.38;11.38;;;1.70;99.90;;;;;;5032673;28;20124;-83
2021/12/09 09:55:56;;;;;;;27.88;12.70;;;1.70;99.90;;;;;;5021562;28;20203;-81
2021/12/09 09:58:22;;;;;;;26.00;11.65;;;1.70;99.90;;;;;;5017621;28;20045;-80
2021/12/09 10:00:48;;;;;;;25.15;11.73;;;1.80;99.90;;;;;;5016384;28;20514;-80
2021/12/09 10:03:17;;;;;;;29.10;11.70;;;1.80;99.90;;;;;;5017719;28;20055;-85
2021/12/09 10:05:49;;;;;;;27.75;11.70;;;1.80;99.90;;;;;;5016457;28;20140;-83
2021/12/09 10:08:25;;;;;;;23.55;10.93;;;1.90;99.90;;;;;;5015279;28;20045;-85
2021/12/09 10:10:51;;;;;;;25.17;11.52;;;2.30;99.90;;;;;;5050491;28;20194;-84
2021/12/09 10:13:18;;;;;;;24.90;11.70;;;2.00;99.90;;;;;;5016262;28;20119;-83
2021/12/09 10:16:24;;;;;;;26.77;10.45;;;2.00;99.90;;;;;;5016977;28;20506;-81
2021/12/09 10:18:54;;;;;;;25.23;9.93;;;2.00;99.90;;;;;;5017401;28;20063;-79
2021/12/09 10:21:24;;;;;;;23.83;10.57;;;2.10;99.90;;;;;;5047399;28;20675;-79
2021/12/09 10:24:04;;;;;;;21.23;10.45;;;2.20;99.90;;;;;;5046288;28;20558;-81
2021/12/09 10:26:36;;;;;;;23.70;10.90;;;2.20;99.90;;;;;;5034970;28;20055;-79
2021/12/09 10:29:14;;;;;;;22.67;10.40;;;2.30;99.90;;;;;;5016817;28;20056;-79
2021/12/09 10:32:00;;;;;;;28.52;10.95;;;2.30;99.90;;;;;;5031888;28;20063;-82
2021/12/09 10:34:41;;;;;;;23.33;10.02;;;2.40;99.90;;;;;;5032686;28;20037;-83
2021/12/09 10:37:21;;;;;;;24.05;10.68;;;2.50;99.90;;;;;;5047811;28;20112;-86
2021/12/09 10:39:50;;;;;;;23.67;10.93;;;2.50;99.90;;;;;;5049715;28;20033;-83
2021/12/09 10:42:17;;;;;;;21.38;10.52;;;2.60;99.90;;;;;;5017948;28;20041;-84
2021/12/09 10:44:48;;;;;;;24.13;10.25;;;3.00;99.90;;;;;;5030854;28;20080;-85
2021/12/09 10:48:06;;;;;;;23.17;9.75;;;2.70;99.90;;;;;;5035025;28;20045;-84
2021/12/09 10:50:21;;;;;;;21.27;9.10;;;3.40;99.90;;;;;;5029935;28;20048;-82
2021/12/09 10:56:10;;;;;;;20.50;10.00;;;2.90;99.90;;;;;;5041818;28;20516;-85
2021/12/09 10:58:42;;;;;;;18.33;9.18;;;3.60;99.90;;;;;;4992828;28;20092;-83
2021/12/09 11:01:28;;;;;;;19.85;9.05;;;3.10;99.90;;;;;;5006596;28;20116;-84
2021/12/09 11:04:00;;;;;;;24.88;11.45;;;3.10;99.90;;;;;;5010421;28;20486;-84
2021/12/09 11:06:35;;;;;;;23.70;10.45;;;3.10;99.90;;;;;;5009648;28;22006;-83
2021/12/09 11:09:07;;;;;;;24.70;10.77;;;3.10;99.90;;;;;;4992127;28;20056;-80
2021/12/09 11:11:42;;;;;;;23.08;10.43;;;3.10;99.90;;;;;;4974875;28;20461;-81
2021/12/09 11:14:14;;;;;;;20.73;10.65;;;3.10;99.90;;;;;;5003237;28;20052;-80
2021/12/09 11:16:46;;;;;;;20.38;10.18;;;3.10;99.90;;;;;;5005131;28;20096;-81
2021/12/09 11:19:15;;;;;;;19.42;9.77;;;3.00;99.90;;;;;;5014024;28;20049;-80
2021/12/09 11:21:45;;;;;;;20.35;9.57;;;3.00;99.90;;;;;;4989741;28;20058;-80
2021/12/09 11:24:16;;;;;;;22.77;11.23;;;3.00;99.90;;;;;;4972508;28;20040;-80
2021/12/09 11:29:27;;;;;;;19.48;10.13;;;2.90;99.90;;;;;;5003234;28;20050;-80
2021/12/09 11:34:59;;;;;;;23.50;10.68;;;3.00;99.90;;;;;;4988096;28;20509;-81
2021/12/09 11:37:40;;;;;;;25.85;10.30;;;2.90;99.90;;;;;;5031326;28;20040;-81
2021/12/09 11:40:06;;;;;;;22.77;10.35;;;3.00;99.90;;;;;;5034777;28;20484;-81
2021/12/09 11:42:39;;;;;;;26.88;10.68;;;3.00;99.90;;;;;;5012238;28;20453;-81
2021/12/09 11:45:14;;;;;;;25.13;10.82;;;3.20;99.90;;;;;;5016742;28;20064;-82
2021/12/09 11:47:46;;;;;;;27.25;11.75;;;2.90;99.90;;;;;;4997159;28;20045;-80
2021/12/09 11:50:15;;;;;;;25.05;11.40;;;3.00;99.90;;;;;;5011871;28;20037;-82
2021/12/09 11:52:45;;;;;;;22.50;11.73;;;3.60;99.90;;;;;;5029170;28;20131;-82
2021/12/09 11:55:15;;;;;;;26.20;12.07;;;3.90;99.90;;;;;;5006564;28;20049;-82
2021/12/09 11:57:53;;;;;;;32.38;12.80;;;3.00;99.90;;;;;;5004486;28;20068;-83
2021/12/09 12:15:19;;;;;;;32.70;12.32;;;3.00;99.90;;;;;;5035334;28;20045;-81
2021/12/09 12:21:26;;;;;;;27.95;11.93;;;3.00;99.90;;;;;;5027964;28;20044;-82
2021/12/09 12:24:16;;;;;;;28.60;11.07;;;3.00;99.90;;;;;;5012671;28;20705;-80
2021/12/09 12:32:59;;;;;;;24.10;11.90;;;3.10;99.90;;;;;;5033793;28;20443;-81
2021/12/09 12:40:51;;;;;;;32.15;12.73;;;3.20;99.90;;;;;;5033246;28;20056;-83
2021/12/09 12:43:53;;;;;;;31.83;11.83;;;3.30;99.90;;;;;;5032700;28;20081;-85
2021/12/09 12:49:30;;;;;;;22.85;11.90;;;3.20;99.90;;;;;;5033080;28;20057;-85
2021/12/09 12:52:27;;;;;;;26.13;12.23;;;3.20;99.90;;;;;;5014272;28;20096;-81
2021/12/09 12:55:13;;;;;;;29.05;12.27;;;3.50;99.90;;;;;;5014687;28;20041;-81
2021/12/09 12:57:47;;;;;;;25.67;12.43;;;3.40;99.90;;;;;;5010915;28;20088;-84
2021/12/09 13:00:32;;;;;;;23.58;12.50;;;3.20;99.90;;;;;;5013801;28;20053;-81
2021/12/09 13:03:15;;;;;;;29.83;12.90;;;3.20;99.90;;;;;;5010033;28;20060;-82
2021/12/09 13:11:59;;;;;;;27.73;13.90;;;3.30;99.90;;;;;;4986384;28;20039;-80
2021/12/09 13:14:35;;;;;;;29.35;13.90;;;3.40;99.90;;;;;;4961020;28;20038;-82
2021/12/09 13:17:08;;;;;;;27.48;13.38;;;3.40;99.90;;;;;;4967919;28;20489;-78
2021/12/09 13:19:48;;;;;;;33.17;13.80;;;3.50;99.90;;;;;;4972411;28;20442;-80
2021/12/09 13:22:38;;;;;;;29.05;12.10;;;3.50;99.90;;;;;;4983688;28;20053;-79
2021/12/09 13:25:12;;;;;;;32.63;16.23;;;3.70;99.90;;;;;;4980766;28;20053;-82
2021/12/09 13:27:59;;;;;;;32.30;14.15;;;3.60;99.90;;;;;;4976930;28;20047;-86
2021/12/09 13:46:43;;;;;;;28.92;14.25;;;3.60;99.90;;;;;;4983262;28;20100;-83
2021/12/09 13:54:23;;;;;;;31.17;13.88;;;3.40;99.90;;;;;;5029911;28;20496;-82
2021/12/09 13:56:56;;;;;;;22.40;9.52;;;3.40;99.90;;;;;;5029293;28;20049;-81
2021/12/09 13:59:23;;;;;;;30.73;14.38;;;4.00;99.90;;;;;;5017784;28;20086;-83
2021/12/09 14:01:52;;;;;;;32.55;13.98;;;4.60;99.90;;;;;;5016249;28;20053;-83
2021/12/09 14:04:21;;;;;;;30.13;14.48;;;3.70;99.90;;;;;;5043264;28;20113;-81
2021/12/09 14:06:57;;;;;;;31.73;14.52;;;3.70;99.90;;;;;;5007952;28;20110;-85
2021/12/09 14:09:23;;;;;;;40.20;15.35;;;3.70;99.90;;;;;;4998305;28;20037;-83
2021/12/09 14:11:51;;;;;;;28.80;14.35;;;3.60;99.90;;;;;;5001196;28;20755;-81
2021/12/09 14:14:26;;;;;;;31.42;13.80;;;3.50;99.90;;;;;;5019475;28;20056;-80
2021/12/09 14:17:02;;;;;;;32.03;15.18;;;3.50;99.90;;;;;;4987452;28;20049;-80
2021/12/09 14:21:59;;;;;;;33.42;14.63;;;3.50;99.90;;;;;;5001707;28;20046;-80
2021/12/09 14:24:28;;;;;;;33.70;15.45;;;3.40;99.90;;;;;;5012723;28;20454;-81
2021/12/09 14:26:54;;;;;;;33.80;14.43;;;3.80;99.90;;;;;;4999018;28;20046;-82
2021/12/09 14:29:20;;;;;;;29.77;14.02;;;3.40;99.90;;;;;;5000051;28;20042;-83
2021/12/09 14:31:50;;;;;;;31.00;15.25;;;3.50;99.90;;;;;;4996419;28;20129;-81
2021/12/09 14:34:17;;;;;;;33.00;14.73;;;3.50;99.90;;;;;;4999781;28;20121;-81
2021/12/09 14:36:45;;;;;;;38.58;15.93;;;3.50;99.90;;;;;;4981816;28;20061;-80
2021/12/09 14:39:16;;;;;;;38.97;16.25;;;3.50;99.90;;;;;;5001752;28;20516;-81
2021/12/09 14:41:43;;;;;;;31.83;15.15;;;3.50;99.90;;;;;;4980963;28;20053;-82
2021/12/09 14:44:10;;;;;;;40.90;16.52;;;3.50;99.90;;;;;;5007267;28;20053;-77
2021/12/09 14:46:37;;;;;;;29.92;16.27;;;3.50;99.90;;;;;;5021363;28;20044;-81
2021/12/09 14:49:17;;;;;;;33.08;15.38;;;3.50;99.90;;;;;;5000148;28;20445;-79
2021/12/09 14:51:43;;;;;;;34.40;15.13;;;3.50;99.90;;;;;;4989509;28;20212;-79
2021/12/09 14:54:13;;;;;;;33.90;15.70;;;3.50;99.90;;;;;;4999395;28;20042;-81
2021/12/09 14:57:01;;;;;;;29.25;14.95;;;3.50;99.90;;;;;;4990305;28;20053;-80
2021/12/09 14:59:35;;;;;;;35.70;15.48;;;3.50;99.90;;;;;;5001999;28;20101;-85
2021/12/09 15:02:30;;;;;;;34.97;15.20;;;3.50;99.90;;;;;;5015914;28;20103;-83
2021/12/09 15:05:11;;;;;;;31.70;15.82;;;3.50;99.90;;;;;;4986277;28;20878;-83
2021/12/09 15:07:50;;;;;;;29.90;15.07;;;3.40;99.90;;;;;;4976313;28;20088;-82
2021/12/09 15:10:21;;;;;;;31.60;15.70;;;3.60;99.90;;;;;;4987513;28;20559;-85
2021/12/09 15:12:48;;;;;;;29.25;15.18;;;4.20;99.90;;;;;;4993938;28;20053;-80
2021/12/09 15:15:36;;;;;;;35.35;15.48;;;4.00;99.90;;;;;;5030717;28;20120;-82
2021/12/09 15:18:07;;;;;;;36.45;15.90;;;3.50;99.90;;;;;;4996584;28;20080;-83
2021/12/09 15:20:50;;;;;;;32.80;16.00;;;3.60;99.90;;;;;;5010208;28;20053;-81
2021/12/09 15:26:32;;;;;;;39.78;16.05;;;3.50;99.90;;;;;;4955441;28;20374;-82
2021/12/09 15:29:15;;;;;;;32.92;15.90;;;3.60;99.90;;;;;;4948848;28;20043;-83
2021/12/09 15:32:06;;;;;;;36.47;17.38;;;4.20;99.90;;;;;;4931796;28;20054;-82
2021/12/09 15:34:39;;;;;;;33.33;16.02;;;3.60;99.90;;;;;;4946674;28;20380;-78
2021/12/09 15:37:14;;;;;;;40.97;18.17;;;3.60;99.90;;;;;;4959435;28;20054;-80
2021/12/09 15:39:47;;;;;;;37.40;17.87;;;3.60;99.90;;;;;;4937754;28;20569;-82
2021/12/09 15:42:19;;;;;;;34.50;16.52;;;3.60;99.90;;;;;;4936678;28;20458;-79
2021/12/09 15:44:57;;;;;;;34.40;18.63;;;3.60;99.90;;;;;;4950586;28;20050;-81
2021/12/09 15:47:26;;;;;;;37.40;18.17;;;4.10;99.90;;;;;;4938368;28;20498;-84
2021/12/09 15:50:00;;;;;;;36.28;17.15;;;3.60;99.90;;;;;;4965210;28;20358;-83
2021/12/09 15:52:50;;;;;;;37.58;17.58;;;3.60;99.90;;;;;;4933313;28;20036;-82
2021/12/09 15:55:21;;;;;;;41.67;16.75;;;3.60;99.90;;;;;;4967132;28;20049;-86
2021/12/09 15:57:53;;;;;;;34.92;17.60;;;4.20;99.90;;;;;;4948596;28;20462;-81
2021/12/09 16:00:24;;;;;;;33.47;17.02;;;4.30;99.90;;;;;;4963513;28;20042;-86
2021/12/09 16:03:09;;;;;;;34.67;17.50;;;3.60;99.90;;;;;;4986506;28;20136;-79
2021/12/09 16:05:35;;;;;;;34.65;16.98;;;3.60;99.90;;;;;;4994945;28;20049;-87
2021/12/09 16:08:01;;;;;;;37.42;17.88;;;3.60;99.90;;;;;;5009754;28;20368;-82
2021/12/09 16:10:27;;;;;;;32.05;18.05;;;4.50;99.90;;;;;;5016497;28;20468;-83
2021/12/09 16:12:54;;;;;;;34.28;17.63;;;3.60;99.90;;;;;;5016777;28;20116;-80
2021/12/09 16:15:21;;;;;;;42.42;19.38;;;3.50;99.90;;;;;;5029691;28;20151;-78
2021/12/09 16:17:48;;;;;;;45.05;19.05;;;3.60;99.90;;;;;;5016991;28;20143;-83
2021/12/09 16:20:24;;;;;;;43.75;18.85;;;3.90;99.90;;;;;;5033788;28;20060;-79
2021/12/09 16:22:50;;;;;;;38.78;19.75;;;3.50;99.90;;;;;;5019980;28;20053;-84
2021/12/09 16:25:21;;;;;;;38.80;19.77;;;3.70;99.90;;;;;;5039070;28;20061;-86
2021/12/09 16:28:11;;;;;;;46.30;21.10;;;3.60;99.90;;;;;;5013151;28;20489;-83
2021/12/09 16:30:37;;;;;;;38.83;20.38;;;4.00;99.90;;;;;;5029720;28;20056;-85
2021/12/09 16:33:06;;;;;;;40.58;20.58;;;4.00;99.90;;;;;;5031527;28;20059;-85
2021/12/09 16:35:35;;;;;;;38.85;20.45;;;4.50;99.90;;;;;;5014986;28;20064;-88
2021/12/09 16:38:02;;;;;;;39.78;19.20;;;3.60;99.90;;;;;;5031950;28;20148;-83
2021/12/09 16:40:38;;;;;;;42.42;21.63;;;4.10;99.90;;;;;;5013694;28;20056;-88
2021/12/09 16:43:06;;;;;;;39.10;21.20;;;3.60;99.90;;;;;;5028522;28;20164;-86
2021/12/09 16:45:37;;;;;;;39.20;19.77;;;3.60;99.90;;;;;;5035125;28;20120;-88
2021/12/09 16:48:08;;;;;;;37.85;20.38;;;3.60;99.90;;;;;;5017750;28;20052;-90
2021/12/09 16:50:37;;;;;;;35.28;21.23;;;3.80;99.90;;;;;;5031931;28;20044;-82
2021/12/09 16:53:14;;;;;;;36.47;21.60;;;4.60;99.90;;;;;;5014811;28;20496;-85
2021/12/09 16:55:50;;;;;;;45.85;20.08;;;3.60;99.90;;;;;;5015228;28;20517;-85
2021/12/09 16:58:34;;;;;;;37.80;21.17;;;3.60;99.90;;;;;;5048394;28;20037;-85
2021/12/09 17:01:03;;;;;;;38.75;21.35;;;4.10;99.90;;;;;;5047750;28;20064;-78
2021/12/09 17:03:29;;;;;;;38.63;20.60;;;3.70;99.90;;;;;;5024289;28;20045;-82
2021/12/09 17:05:58;;;;;;;39.03;21.85;;;3.70;99.90;;;;;;5021377;28;20460;-82
2021/12/09 17:08:25;;;;;;;39.90;22.83;;;4.20;99.90;;;;;;5041305;28;20052;-81
2021/12/09 17:10:51;;;;;;;41.47;20.92;;;3.70;99.90;;;;;;5047407;28;20040;-79
2021/12/09 17:13:17;;;;;;;43.28;22.83;;;3.70;99.90;;;;;;5055799;28;20036;-81
2021/12/09 17:15:43;;;;;;;43.63;22.38;;;4.50;99.90;;;;;;5059489;28;20793;-79
2021/12/09 17:18:10;;;;;;;37.63;21.42;;;3.70;99.90;;;;;;5039719;28;20037;-81
2021/12/09 17:20:36;;;;;;;42.50;21.85;;;3.70;99.90;;;;;;5008160;28;20468;-79
2021/12/09 17:23:06;;;;;;;42.65;21.92;;;3.70;99.90;;;;;;5006588;28;20490;-79
2021/12/09 17:25:40;;;;;;;39.20;22.23;;;3.70;99.90;;;;;;5030871;28;20053;-82
2021/12/09 17:28:09;;;;;;;44.22;23.30;;;3.80;99.90;;;;;;5012003;28;20025;-82
2021/12/09 17:30:37;;;;;;;43.65;22.17;;;4.30;99.90;;;;;;5030636;28;20052;-84
2021/12/09 17:33:03;;;;;;;43.90;23.08;;;3.70;99.90;;;;;;5030115;28;20041;-83
2021/12/09 17:35:32;;;;;;;40.75;22.83;;;3.90;99.90;;;;;;5001318;28;20045;-83
2021/12/09 17:38:01;;;;;;;37.78;21.92;;;4.50;99.90;;;;;;5028829;28;20488;-80
2021/12/09 17:40:28;;;;;;;43.75;23.73;;;4.30;99.90;;;;;;5030068;28;20045;-81
2021/12/09 17:42:55;;;;;;;41.65;22.88;;;3.80;99.90;;;;;;5044784;28;20480;-85
2021/12/09 17:45:23;;;;;;;47.60;23.17;;;4.30;99.90;;;;;;5030499;28;20021;-81
2021/12/09 17:48:06;;;;;;;39.08;21.95;;;4.60;99.90;;;;;;5012941;28;20091;-85
2021/12/09 17:50:33;;;;;;;36.38;21.52;;;3.80;99.90;;;;;;5030385;28;20120;-81
2021/12/09 17:53:04;;;;;;;40.65;21.42;;;3.90;99.90;;;;;;5028856;28;20452;-82
2021/12/09 17:55:32;;;;;;;40.95;23.52;;;4.00;99.90;;;;;;5049390;28;20036;-80
2021/12/09 17:57:58;;;;;;;42.22;23.20;;;3.90;99.90;;;;;;5032698;28;20500;-84
2021/12/09 18:00:27;;;;;;;47.88;23.95;;;4.30;99.90;;;;;;5031435;28;20516;-85
2021/12/09 18:02:54;;;;;;;45.03;23.60;;;4.70;99.90;;;;;;5034449;28;20552;-84
2021/12/09 18:05:21;;;;;;;42.88;23.40;;;4.20;99.90;;;;;;5024002;28;20075;-85
2021/12/09 18:07:51;;;;;;;49.20;23.42;;;4.00;99.90;;;;;;5034576;28;20061;-85
2021/12/09 18:10:18;;;;;;;42.92;23.10;;;3.90;99.90;;;;;;5034972;28;20492;-84
2021/12/09 18:12:44;;;;;;;40.30;23.75;;;4.70;99.90;;;;;;5034848;28;20044;-84
2021/12/09 18:15:28;;;;;;;52.05;24.40;;;3.90;99.90;;;;;;5050510;28;20032;-88
2021/12/09 18:17:54;;;;;;;44.22;24.80;;;3.90;99.90;;;;;;5049740;28;20049;-79
2021/12/09 18:20:22;;;;;;;42.15;24.00;;;3.90;99.90;;;;;;5034907;28;20538;-80
2021/12/09 18:22:50;;;;;;;37.20;22.83;;;4.30;99.90;;;;;;5033172;28;20052;-81
2021/12/09 18:25:18;;;;;;;44.83;24.88;;;4.60;99.90;;;;;;5034150;28;20057;-79
2021/12/09 18:27:51;;;;;;;43.58;24.27;;;3.90;99.90;;;;;;5016832;28;20155;-88
2021/12/09 18:30:21;;;;;;;46.88;22.30;;;4.00;99.90;;;;;;5033306;28;20128;-84
2021/12/09 18:32:47;;;;;;;45.25;24.83;;;4.00;99.90;;;;;;5032056;28;20041;-81
2021/12/09 18:35:13;;;;;;;46.67;24.30;;;4.00;99.90;;;;;;5031445;28;20041;-82
2021/12/09 18:37:48;;;;;;;49.40;24.83;;;3.90;99.90;;;;;;5027171;28;21461;-80
2021/12/09 18:40:17;;;;;;;41.13;24.42;;;4.50;99.90;;;;;;5025856;28;20045;-83
2021/12/09 18:42:44;;;;;;;43.38;25.02;;;4.70;99.90;;;;;;5019679;28;20131;-82
2021/12/09 18:45:13;;;;;;;46.15;25.60;;;4.70;99.90;;;;;;5050058;28;22469;-82
2021/12/09 18:47:39;;;;;;;45.30;26.20;;;3.90;99.90;;;;;;5003623;28;20052;-81
2021/12/09 18:50:09;;;;;;;46.28;26.98;;;4.40;99.90;;;;;;5028782;28;20143;-82
2021/12/09 18:52:34;;;;;;;48.60;26.23;;;4.00;99.90;;;;;;5006922;28;20034;-85
2021/12/09 18:55:00;;;;;;;52.47;27.13;;;4.80;99.90;;;;;;5029607;28;20045;-84
2021/12/09 18:57:28;;;;;;;51.33;25.58;;;3.90;99.90;;;;;;5034033;28;20051;-83
2021/12/09 18:59:54;;;;;;;55.92;25.95;;;4.00;99.90;;;;;;5030750;28;20163;-86
2021/12/09 19:02:21;;;;;;;54.17;25.80;;;4.00;99.90;;;;;;5035443;28;20033;-85
2021/12/09 19:04:47;;;;;;;50.83;26.90;;;4.00;99.90;;;;;;5049785;28;20041;-87
2021/12/09 19:07:13;;;;;;;50.58;27.38;;;4.00;99.90;;;;;;5055248;28;20044;-87
2021/12/09 19:09:39;;;;;;;55.60;26.15;;;4.00;99.90;;;;;;5038994;28;20048;-88
2021/12/09 19:12:09;;;;;;;50.53;26.95;;;4.00;99.90;;;;;;5039499;28;20044;-85
2021/12/09 19:14:35;;;;;;;49.88;25.95;;;4.00;99.90;;;;;;5035233;28;20049;-91
2021/12/09 19:17:05;;;;;;;45.95;26.15;;;4.90;99.90;;;;;;5019639;28;20044;-90
2021/12/09 19:19:32;;;;;;;53.58;27.98;;;4.00;99.90;;;;;;5018849;28;20389;-90
2021/12/09 19:21:58;;;;;;;46.30;25.90;;;4.00;99.90;;;;;;5018120;28;20052;-88
2021/12/09 19:24:26;;;;;;;43.70;26.63;;;4.60;99.90;;;;;;5016181;28;20396;-86
2021/12/09 19:27:10;;;;;;;49.90;27.08;;;4.70;99.90;;;;;;5032190;28;20044;-87
2021/12/09 19:29:36;;;;;;;47.47;28.00;;;4.70;99.90;;;;;;5029060;28;20069;-83
2021/12/09 19:32:02;;;;;;;49.60;27.08;;;4.10;99.90;;;;;;5006352;28;20079;-83
2021/12/09 19:34:30;;;;;;;51.10;28.02;;;4.00;99.90;;;;;;5011481;28;20057;-84
2021/12/09 19:36:56;;;;;;;51.33;28.52;;;4.10;99.90;;;;;;5010485;28;20080;-83
2021/12/09 19:39:23;;;;;;;51.63;28.80;;;4.70;99.90;;;;;;5049169;28;20060;-81
2021/12/09 19:41:50;;;;;;;56.63;28.88;;;4.10;99.90;;;;;;5014407;28;20503;-80
2021/12/09 19:44:17;;;;;;;51.67;26.45;;;4.00;99.90;;;;;;5007677;28;20049;-79
2021/12/09 19:46:45;;;;;;;58.08;28.92;;;4.10;99.90;;;;;;5015617;28;20041;-84
2021/12/09 19:49:10;;;;;;;54.47;30.50;;;4.10;99.90;;;;;;5031653;28;20033;-83
2021/12/09 19:51:37;;;;;;;63.38;30.55;;;4.60;99.90;;;;;;5016534;28;20076;-81
2021/12/09 19:54:03;;;;;;;63.53;31.65;;;4.90;99.90;;;;;;5014829;28;20429;-79
2021/12/09 19:56:30;;;;;;;61.15;31.48;;;4.10;99.90;;;;;;5017370;28;20052;-83
2021/12/09 19:58:57;;;;;;;58.90;29.27;;;4.20;99.90;;;;;;5040384;28;20040;-81
2021/12/09 20:01:23;;;;;;;66.38;33.70;;;3.60;99.90;;;;;;5039380;28;20535;-82
2021/12/09 20:03:49;;;;;;;70.70;32.53;;;4.10;99.90;;;;;;5047927;28;20045;-82
2021/12/09 20:06:15;;;;;;;63.50;28.30;;;4.40;99.90;;;;;;5004598;28;20459;-80
2021/12/09 20:08:45;;;;;;;58.97;31.60;;;4.30;99.90;;;;;;5032448;28;20497;-82
2021/12/09 20:11:16;;;;;;;65.60;30.80;;;4.10;99.90;;;;;;5021034;28;20181;-80
2021/12/09 20:13:48;;;;;;;57.28;31.13;;;4.10;99.90;;;;;;5019875;28;20040;-82
2021/12/09 20:16:19;;;;;;;59.67;30.33;;;4.10;99.90;;;;;;5032796;28;20045;-80
2021/12/09 20:18:49;;;;;;;56.53;29.50;;;4.10;99.90;;;;;;5014336;28;20060;-80
2021/12/09 20:21:20;;;;;;;49.15;29.15;;;4.10;99.90;;;;;;5029548;28;20052;-83
2021/12/09 20:23:48;;;;;;;57.50;30.52;;;4.10;99.90;;;;;;5009969;28;20090;-83
2021/12/09 20:26:15;;;;;;;53.10;30.27;;;4.10;99.90;;;;;;5013088;28;20036;-81
2021/12/09 20:28:40;;;;;;;63.95;31.92;;;4.40;99.90;;;;;;5029888;28;20053;-80